sensor_id;sensor_type;location;lat;lon;timestamp;P1;durP1;ratioP1;P2;durP2;ratioP2
44426;SDS011;30133;47.866;-4.222;2024-02-23T00:02:04;7.25;;;1.95;;
44426;SDS011;30133;47.866;-4.222;2024-02-23T00:04:30;8.93;;;2.20;;
44426;SDS011;30133;47.866;-4.222;2024-02-23T00:06:56;9.02;;;2.30;;
44426;SDS011;30133;47.866;-4.222;2024-02-23T00:09:22;7.13;;;1.90;;
44426;SDS011;30133;47.866;-4.222;2024-02-23T00:11:49;6.07;;;1.75;;
44426;SDS011;30133;47.866;-4.222;2024-02-23T00:14:15;10.43;;;2.33;;
44426;SDS011;30133;47.866;-4.222;2024-02-23T00:16:43;5.55;;;1.65;;
44426;SDS011;30133;47.866;-4.222;2024-02-23T00:19:09;11.65;;;2.38;;
44426;SDS011;30133;47.866;-4.222;2024-02-23T00:21:36;6.35;;;1.90;;
44426;SDS011;30133;47.866;-4.222;2024-02-23T00:24:02;10.02;;;1.80;;
44426;SDS011;30133;47.866;-4.222;2024-02-23T00:26:28;6.47;;;1.92;;
44426;SDS011;30133;47.866;-4.222;2024-02-23T00:29:02;9.00;;;2.13;;
44426;SDS011;30133;47.866;-4.222;2024-02-23T00:31:27;12.32;;;1.88;;
44426;SDS011;30133;47.866;-4.222;2024-02-23T00:33:53;8.88;;;2.30;;
44426;SDS011;30133;47.866;-4.222;2024-02-23T00:36:19;8.90;;;1.98;;
44426;SDS011;30133;47.866;-4.222;2024-02-23T00:38:45;6.55;;;2.20;;
44426;SDS011;30133;47.866;-4.222;2024-02-23T00:41:11;9.13;;;2.05;;
44426;SDS011;30133;47.866;-4.222;2024-02-23T00:43:40;7.13;;;1.70;;
44426;SDS011;30133;47.866;-4.222;2024-02-23T00:46:06;7.35;;;1.95;;
44426;SDS011;30133;47.866;-4.222;2024-02-23T00:48:32;8.65;;;2.15;;
44426;SDS011;30133;47.866;-4.222;2024-02-23T00:50:58;8.00;;;1.75;;
44426;SDS011;30133;47.866;-4.222;2024-02-23T00:53:24;9.95;;;2.50;;
44426;SDS011;30133;47.866;-4.222;2024-02-23T00:55:50;11.38;;;2.08;;
44426;SDS011;30133;47.866;-4.222;2024-02-23T00:58:16;9.93;;;1.98;;
44426;SDS011;30133;47.866;-4.222;2024-02-23T01:00:42;6.07;;;1.80;;
44426;SDS011;30133;47.866;-4.222;2024-02-23T01:03:08;7.57;;;1.95;;
44426;SDS011;30133;47.866;-4.222;2024-02-23T01:05:33;9.95;;;2.58;;
44426;SDS011;30133;47.866;-4.222;2024-02-23T01:07:59;11.48;;;2.53;;
44426;SDS011;30133;47.866;-4.222;2024-02-23T01:10:25;6.43;;;1.52;;
44426;SDS011;30133;47.866;-4.222;2024-02-23T01:12:51;12.15;;;2.15;;
44426;SDS011;30133;47.866;-4.222;2024-02-23T01:15:17;10.80;;;1.80;;
44426;SDS011;30133;47.866;-4.222;2024-02-23T01:17:43;7.88;;;1.90;;
44426;SDS011;30133;47.866;-4.222;2024-02-23T01:20:09;13.68;;;2.10;;
44426;SDS011;30133;47.866;-4.222;2024-02-23T01:22:35;8.93;;;1.80;;
44426;SDS011;30133;47.866;-4.222;2024-02-23T01:25:01;6.97;;;1.95;;
44426;SDS011;30133;47.866;-4.222;2024-02-23T01:27:27;13.45;;;2.22;;
44426;SDS011;30133;47.866;-4.222;2024-02-23T01:29:59;5.45;;;1.80;;
44426;SDS011;30133;47.866;-4.222;2024-02-23T01:32:25;6.47;;;1.80;;
44426;SDS011;30133;47.866;-4.222;2024-02-23T01:34:51;10.95;;;1.90;;
44426;SDS011;30133;47.866;-4.222;2024-02-23T01:37:17;5.53;;;1.48;;
44426;SDS011;30133;47.866;-4.222;2024-02-23T01:39:43;14.18;;;2.03;;
44426;SDS011;30133;47.866;-4.222;2024-02-23T01:42:09;6.90;;;1.70;;
44426;SDS011;30133;47.866;-4.222;2024-02-23T01:44:35;4.20;;;1.40;;
44426;SDS011;30133;47.866;-4.222;2024-02-23T01:47:01;6.50;;;1.60;;
44426;SDS011;30133;47.866;-4.222;2024-02-23T01:49:27;9.10;;;2.05;;
44426;SDS011;30133;47.866;-4.222;2024-02-23T01:51:58;6.90;;;1.60;;
44426;SDS011;30133;47.866;-4.222;2024-02-23T01:54:25;9.15;;;2.15;;
44426;SDS011;30133;47.866;-4.222;2024-02-23T01:56:53;9.88;;;1.58;;
44426;SDS011;30133;47.866;-4.222;2024-02-23T01:59:19;5.50;;;1.50;;
44426;SDS011;30133;47.866;-4.222;2024-02-23T02:01:46;6.80;;;1.63;;
44426;SDS011;30133;47.866;-4.222;2024-02-23T02:04:12;4.70;;;1.83;;
44426;SDS011;30133;47.866;-4.222;2024-02-23T02:06:37;9.43;;;1.77;;
44426;SDS011;30133;47.866;-4.222;2024-02-23T02:09:03;8.43;;;2.08;;
44426;SDS011;30133;47.866;-4.222;2024-02-23T02:11:30;7.07;;;1.48;;
44426;SDS011;30133;47.866;-4.222;2024-02-23T02:13:56;5.78;;;1.60;;
44426;SDS011;30133;47.866;-4.222;2024-02-23T02:16:22;7.32;;;2.00;;
44426;SDS011;30133;47.866;-4.222;2024-02-23T02:18:48;7.10;;;1.80;;
44426;SDS011;30133;47.866;-4.222;2024-02-23T02:21:20;7.30;;;1.83;;
44426;SDS011;30133;47.866;-4.222;2024-02-23T02:23:50;4.35;;;1.42;;
44426;SDS011;30133;47.866;-4.222;2024-02-23T02:26:15;7.65;;;1.85;;
44426;SDS011;30133;47.866;-4.222;2024-02-23T02:28:41;5.72;;;1.70;;
44426;SDS011;30133;47.866;-4.222;2024-02-23T02:31:14;6.72;;;1.70;;
44426;SDS011;30133;47.866;-4.222;2024-02-23T02:33:40;8.48;;;1.73;;
44426;SDS011;30133;47.866;-4.222;2024-02-23T02:36:06;7.47;;;1.52;;
44426;SDS011;30133;47.866;-4.222;2024-02-23T02:38:32;5.28;;;1.75;;
44426;SDS011;30133;47.866;-4.222;2024-02-23T02:40:59;7.38;;;1.75;;
44426;SDS011;30133;47.866;-4.222;2024-02-23T02:43:27;7.85;;;1.38;;
44426;SDS011;30133;47.866;-4.222;2024-02-23T02:45:53;6.47;;;1.67;;
44426;SDS011;30133;47.866;-4.222;2024-02-23T02:48:19;6.35;;;1.58;;
44426;SDS011;30133;47.866;-4.222;2024-02-23T02:50:45;8.18;;;1.73;;
44426;SDS011;30133;47.866;-4.222;2024-02-23T02:53:11;3.58;;;1.35;;
44426;SDS011;30133;47.866;-4.222;2024-02-23T02:55:39;5.22;;;2.00;;
44426;SDS011;30133;47.866;-4.222;2024-02-23T03:01:28;9.40;;;1.87;;
44426;SDS011;30133;47.866;-4.222;2024-02-23T03:03:54;8.88;;;1.85;;
44426;SDS011;30133;47.866;-4.222;2024-02-23T03:06:20;8.10;;;1.90;;
44426;SDS011;30133;47.866;-4.222;2024-02-23T03:08:46;12.93;;;2.38;;
44426;SDS011;30133;47.866;-4.222;2024-02-23T03:11:12;7.15;;;1.98;;
44426;SDS011;30133;47.866;-4.222;2024-02-23T03:13:37;7.05;;;1.60;;
44426;SDS011;30133;47.866;-4.222;2024-02-23T03:16:03;9.85;;;1.67;;
44426;SDS011;30133;47.866;-4.222;2024-02-23T03:18:29;8.43;;;1.70;;
44426;SDS011;30133;47.866;-4.222;2024-02-23T03:20:55;5.57;;;1.55;;
44426;SDS011;30133;47.866;-4.222;2024-02-23T03:23:21;11.20;;;1.90;;
44426;SDS011;30133;47.866;-4.222;2024-02-23T03:25:46;6.57;;;1.85;;
44426;SDS011;30133;47.866;-4.222;2024-02-23T03:28:12;6.80;;;1.42;;
44426;SDS011;30133;47.866;-4.222;2024-02-23T03:30:38;8.15;;;1.98;;
44426;SDS011;30133;47.866;-4.222;2024-02-23T03:35:36;9.18;;;1.90;;
44426;SDS011;30133;47.866;-4.222;2024-02-23T03:38:01;7.25;;;1.90;;
44426;SDS011;30133;47.866;-4.222;2024-02-23T03:40:27;6.13;;;1.65;;
44426;SDS011;30133;47.866;-4.222;2024-02-23T03:42:53;6.50;;;1.75;;
44426;SDS011;30133;47.866;-4.222;2024-02-23T03:45:19;6.10;;;1.48;;
44426;SDS011;30133;47.866;-4.222;2024-02-23T03:47:51;5.18;;;1.55;;
44426;SDS011;30133;47.866;-4.222;2024-02-23T03:50:17;4.57;;;1.60;;
44426;SDS011;30133;47.866;-4.222;2024-02-23T03:52:43;4.63;;;1.50;;
44426;SDS011;30133;47.866;-4.222;2024-02-23T03:55:08;8.88;;;1.90;;
44426;SDS011;30133;47.866;-4.222;2024-02-23T03:57:34;10.02;;;1.60;;
44426;SDS011;30133;47.866;-4.222;2024-02-23T04:00:00;5.10;;;1.55;;
44426;SDS011;30133;47.866;-4.222;2024-02-23T04:02:26;6.28;;;1.80;;
44426;SDS011;30133;47.866;-4.222;2024-02-23T04:04:52;5.50;;;1.55;;
44426;SDS011;30133;47.866;-4.222;2024-02-23T04:07:19;5.90;;;1.40;;
44426;SDS011;30133;47.866;-4.222;2024-02-23T04:09:45;4.82;;;1.60;;
44426;SDS011;30133;47.866;-4.222;2024-02-23T04:12:10;6.22;;;1.60;;
44426;SDS011;30133;47.866;-4.222;2024-02-23T04:14:37;7.70;;;1.70;;
44426;SDS011;30133;47.866;-4.222;2024-02-23T04:17:03;5.30;;;1.40;;
44426;SDS011;30133;47.866;-4.222;2024-02-23T04:19:29;6.95;;;1.73;;
44426;SDS011;30133;47.866;-4.222;2024-02-23T04:21:54;7.60;;;1.60;;
44426;SDS011;30133;47.866;-4.222;2024-02-23T04:24:20;9.23;;;1.80;;
44426;SDS011;30133;47.866;-4.222;2024-02-23T04:26:46;4.53;;;1.60;;
44426;SDS011;30133;47.866;-4.222;2024-02-23T04:29:12;4.85;;;1.58;;
44426;SDS011;30133;47.866;-4.222;2024-02-23T04:31:38;8.20;;;1.65;;
44426;SDS011;30133;47.866;-4.222;2024-02-23T04:34:10;5.65;;;1.67;;
44426;SDS011;30133;47.866;-4.222;2024-02-23T04:36:36;6.57;;;1.67;;
44426;SDS011;30133;47.866;-4.222;2024-02-23T04:39:02;6.53;;;1.65;;
44426;SDS011;30133;47.866;-4.222;2024-02-23T04:41:28;4.18;;;1.50;;
44426;SDS011;30133;47.866;-4.222;2024-02-23T04:43:53;4.88;;;1.33;;
44426;SDS011;30133;47.866;-4.222;2024-02-23T04:46:25;2.97;;;1.43;;
44426;SDS011;30133;47.866;-4.222;2024-02-23T04:48:51;6.63;;;1.55;;
44426;SDS011;30133;47.866;-4.222;2024-02-23T04:51:16;7.90;;;1.70;;
44426;SDS011;30133;47.866;-4.222;2024-02-23T04:53:42;5.38;;;1.58;;
44426;SDS011;30133;47.866;-4.222;2024-02-23T04:56:08;5.80;;;1.90;;
44426;SDS011;30133;47.866;-4.222;2024-02-23T04:58:34;7.05;;;1.65;;
44426;SDS011;30133;47.866;-4.222;2024-02-23T05:01:00;2.83;;;1.58;;
44426;SDS011;30133;47.866;-4.222;2024-02-23T05:03:26;7.40;;;1.63;;
44426;SDS011;30133;47.866;-4.222;2024-02-23T05:05:51;8.27;;;1.58;;
44426;SDS011;30133;47.866;-4.222;2024-02-23T05:08:22;4.60;;;1.88;;
44426;SDS011;30133;47.866;-4.222;2024-02-23T05:10:49;9.07;;;1.83;;
44426;SDS011;30133;47.866;-4.222;2024-02-23T05:13:15;7.05;;;1.30;;
44426;SDS011;30133;47.866;-4.222;2024-02-23T05:15:42;5.50;;;1.35;;
44426;SDS011;30133;47.866;-4.222;2024-02-23T05:18:07;4.68;;;1.65;;
44426;SDS011;30133;47.866;-4.222;2024-02-23T05:20:33;9.02;;;2.03;;
44426;SDS011;30133;47.866;-4.222;2024-02-23T05:22:59;7.65;;;1.55;;
44426;SDS011;30133;47.866;-4.222;2024-02-23T05:25:25;6.63;;;2.13;;
44426;SDS011;30133;47.866;-4.222;2024-02-23T05:27:52;5.38;;;1.27;;
44426;SDS011;30133;47.866;-4.222;2024-02-23T05:30:18;6.85;;;1.60;;
44426;SDS011;30133;47.866;-4.222;2024-02-23T05:32:44;4.22;;;1.55;;
44426;SDS011;30133;47.866;-4.222;2024-02-23T05:35:18;8.27;;;1.85;;
44426;SDS011;30133;47.866;-4.222;2024-02-23T05:37:44;5.25;;;1.55;;
44426;SDS011;30133;47.866;-4.222;2024-02-23T05:40:10;8.45;;;1.95;;
44426;SDS011;30133;47.866;-4.222;2024-02-23T05:42:38;5.15;;;1.40;;
44426;SDS011;30133;47.866;-4.222;2024-02-23T05:45:04;10.73;;;2.33;;
44426;SDS011;30133;47.866;-4.222;2024-02-23T05:47:37;6.60;;;1.58;;
44426;SDS011;30133;47.866;-4.222;2024-02-23T05:50:04;6.60;;;1.42;;
44426;SDS011;30133;47.866;-4.222;2024-02-23T05:52:31;3.72;;;1.50;;
44426;SDS011;30133;47.866;-4.222;2024-02-23T05:54:57;6.63;;;1.67;;
44426;SDS011;30133;47.866;-4.222;2024-02-23T05:57:25;7.13;;;1.73;;
44426;SDS011;30133;47.866;-4.222;2024-02-23T05:59:52;6.45;;;1.73;;
44426;SDS011;30133;47.866;-4.222;2024-02-23T06:02:18;11.70;;;1.95;;
44426;SDS011;30133;47.866;-4.222;2024-02-23T06:04:44;10.80;;;1.83;;
44426;SDS011;30133;47.866;-4.222;2024-02-23T06:07:10;5.50;;;1.67;;
44426;SDS011;30133;47.866;-4.222;2024-02-23T06:09:36;5.13;;;1.60;;
44426;SDS011;30133;47.866;-4.222;2024-02-23T06:12:02;7.45;;;1.70;;
44426;SDS011;30133;47.866;-4.222;2024-02-23T06:14:28;8.00;;;1.55;;
44426;SDS011;30133;47.866;-4.222;2024-02-23T06:16:54;6.53;;;2.13;;
44426;SDS011;30133;47.866;-4.222;2024-02-23T06:19:20;5.30;;;1.33;;
44426;SDS011;30133;47.866;-4.222;2024-02-23T06:21:48;7.65;;;1.73;;
44426;SDS011;30133;47.866;-4.222;2024-02-23T06:24:15;4.05;;;1.70;;
44426;SDS011;30133;47.866;-4.222;2024-02-23T06:26:41;7.80;;;1.70;;
44426;SDS011;30133;47.866;-4.222;2024-02-23T06:29:07;11.13;;;1.80;;
44426;SDS011;30133;47.866;-4.222;2024-02-23T06:31:38;7.53;;;1.50;;
44426;SDS011;30133;47.866;-4.222;2024-02-23T06:34:04;10.75;;;1.98;;
44426;SDS011;30133;47.866;-4.222;2024-02-23T06:36:37;3.72;;;1.63;;
44426;SDS011;30133;47.866;-4.222;2024-02-23T06:39:03;8.85;;;1.73;;
44426;SDS011;30133;47.866;-4.222;2024-02-23T06:41:29;5.82;;;1.55;;
44426;SDS011;30133;47.866;-4.222;2024-02-23T06:43:56;6.90;;;1.52;;
44426;SDS011;30133;47.866;-4.222;2024-02-23T06:46:22;7.72;;;1.70;;
44426;SDS011;30133;47.866;-4.222;2024-02-23T06:48:48;4.40;;;1.30;;
44426;SDS011;30133;47.866;-4.222;2024-02-23T06:51:13;5.78;;;1.40;;
44426;SDS011;30133;47.866;-4.222;2024-02-23T06:53:41;5.20;;;1.48;;
44426;SDS011;30133;47.866;-4.222;2024-02-23T06:56:07;7.00;;;1.50;;
44426;SDS011;30133;47.866;-4.222;2024-02-23T06:58:33;5.68;;;1.77;;
44426;SDS011;30133;47.866;-4.222;2024-02-23T07:00:59;9.32;;;1.50;;
44426;SDS011;30133;47.866;-4.222;2024-02-23T07:03:26;8.05;;;1.63;;
44426;SDS011;30133;47.866;-4.222;2024-02-23T07:05:51;9.77;;;1.90;;
44426;SDS011;30133;47.866;-4.222;2024-02-23T07:08:17;8.13;;;1.85;;
44426;SDS011;30133;47.866;-4.222;2024-02-23T07:10:43;7.60;;;1.67;;
44426;SDS011;30133;47.866;-4.222;2024-02-23T07:13:09;7.50;;;1.80;;
44426;SDS011;30133;47.866;-4.222;2024-02-23T07:15:35;9.68;;;2.00;;
44426;SDS011;30133;47.866;-4.222;2024-02-23T07:18:01;8.25;;;1.80;;
44426;SDS011;30133;47.866;-4.222;2024-02-23T07:20:27;6.15;;;1.73;;
44426;SDS011;30133;47.866;-4.222;2024-02-23T07:22:53;4.50;;;1.40;;
44426;SDS011;30133;47.866;-4.222;2024-02-23T07:25:19;9.23;;;1.90;;
44426;SDS011;30133;47.866;-4.222;2024-02-23T07:27:45;7.30;;;2.10;;
44426;SDS011;30133;47.866;-4.222;2024-02-23T07:30:14;5.60;;;1.58;;
44426;SDS011;30133;47.866;-4.222;2024-02-23T07:32:41;8.73;;;1.77;;
44426;SDS011;30133;47.866;-4.222;2024-02-23T07:35:08;6.78;;;1.48;;
44426;SDS011;30133;47.866;-4.222;2024-02-23T07:37:40;9.23;;;2.30;;
44426;SDS011;30133;47.866;-4.222;2024-02-23T07:40:06;7.53;;;1.58;;
44426;SDS011;30133;47.866;-4.222;2024-02-23T07:42:33;10.68;;;2.15;;
44426;SDS011;30133;47.866;-4.222;2024-02-23T07:45:01;4.13;;;1.58;;
44426;SDS011;30133;47.866;-4.222;2024-02-23T07:47:30;7.43;;;1.52;;
44426;SDS011;30133;47.866;-4.222;2024-02-23T07:49:57;7.97;;;1.60;;
44426;SDS011;30133;47.866;-4.222;2024-02-23T07:52:23;8.18;;;1.65;;
44426;SDS011;30133;47.866;-4.222;2024-02-23T07:54:49;6.13;;;1.38;;
44426;SDS011;30133;47.866;-4.222;2024-02-23T07:57:17;6.40;;;1.48;;
44426;SDS011;30133;47.866;-4.222;2024-02-23T07:59:46;6.90;;;1.90;;
44426;SDS011;30133;47.866;-4.222;2024-02-23T08:02:13;7.15;;;1.58;;
44426;SDS011;30133;47.866;-4.222;2024-02-23T08:04:40;5.28;;;1.50;;
44426;SDS011;30133;47.866;-4.222;2024-02-23T08:07:07;6.55;;;1.58;;
44426;SDS011;30133;47.866;-4.222;2024-02-23T08:09:33;7.93;;;1.80;;
44426;SDS011;30133;47.866;-4.222;2024-02-23T08:11:59;7.95;;;2.10;;
44426;SDS011;30133;47.866;-4.222;2024-02-23T08:14:25;7.93;;;1.50;;
44426;SDS011;30133;47.866;-4.222;2024-02-23T08:16:50;4.03;;;1.48;;
44426;SDS011;30133;47.866;-4.222;2024-02-23T08:19:16;5.63;;;1.75;;
44426;SDS011;30133;47.866;-4.222;2024-02-23T08:24:15;6.05;;;1.70;;
44426;SDS011;30133;47.866;-4.222;2024-02-23T08:26:41;8.10;;;1.90;;
44426;SDS011;30133;47.866;-4.222;2024-02-23T08:29:07;3.30;;;1.33;;
44426;SDS011;30133;47.866;-4.222;2024-02-23T08:31:34;6.38;;;1.88;;
44426;SDS011;30133;47.866;-4.222;2024-02-23T08:33:59;8.25;;;2.30;;
44426;SDS011;30133;47.866;-4.222;2024-02-23T08:36:25;5.57;;;1.67;;
44426;SDS011;30133;47.866;-4.222;2024-02-23T08:38:57;4.35;;;1.67;;
44426;SDS011;30133;47.866;-4.222;2024-02-23T08:41:23;6.45;;;1.60;;
44426;SDS011;30133;47.866;-4.222;2024-02-23T08:43:49;8.93;;;1.95;;
44426;SDS011;30133;47.866;-4.222;2024-02-23T08:46:15;3.50;;;1.30;;
44426;SDS011;30133;47.866;-4.222;2024-02-23T08:48:40;3.72;;;1.65;;
44426;SDS011;30133;47.866;-4.222;2024-02-23T08:51:06;6.38;;;1.85;;
44426;SDS011;30133;47.866;-4.222;2024-02-23T08:53:32;4.82;;;1.40;;
44426;SDS011;30133;47.866;-4.222;2024-02-23T08:55:58;8.35;;;2.42;;
44426;SDS011;30133;47.866;-4.222;2024-02-23T08:58:24;6.72;;;2.33;;
44426;SDS011;30133;47.866;-4.222;2024-02-23T09:00:50;8.23;;;1.48;;
44426;SDS011;30133;47.866;-4.222;2024-02-23T09:03:15;5.88;;;1.75;;
44426;SDS011;30133;47.866;-4.222;2024-02-23T09:05:41;4.85;;;1.80;;
44426;SDS011;30133;47.866;-4.222;2024-02-23T09:08:07;7.55;;;1.63;;
44426;SDS011;30133;47.866;-4.222;2024-02-23T09:10:33;7.70;;;1.85;;
44426;SDS011;30133;47.866;-4.222;2024-02-23T09:12:58;3.28;;;1.45;;
44426;SDS011;30133;47.866;-4.222;2024-02-23T09:15:24;5.72;;;1.50;;
44426;SDS011;30133;47.866;-4.222;2024-02-23T09:17:50;6.68;;;1.63;;
44426;SDS011;30133;47.866;-4.222;2024-02-23T09:20:16;6.40;;;1.48;;
44426;SDS011;30133;47.866;-4.222;2024-02-23T09:22:42;5.57;;;1.67;;
44426;SDS011;30133;47.866;-4.222;2024-02-23T09:25:08;3.65;;;1.45;;
44426;SDS011;30133;47.866;-4.222;2024-02-23T09:27:34;4.82;;;1.75;;
44426;SDS011;30133;47.866;-4.222;2024-02-23T09:30:04;7.43;;;1.80;;
44426;SDS011;30133;47.866;-4.222;2024-02-23T09:32:32;7.07;;;1.70;;
44426;SDS011;30133;47.866;-4.222;2024-02-23T09:34:58;6.50;;;1.50;;
44426;SDS011;30133;47.866;-4.222;2024-02-23T09:37:24;5.75;;;1.55;;
44426;SDS011;30133;47.866;-4.222;2024-02-23T09:39:56;4.72;;;1.42;;
44426;SDS011;30133;47.866;-4.222;2024-02-23T09:42:22;7.95;;;1.52;;
44426;SDS011;30133;47.866;-4.222;2024-02-23T09:44:57;8.40;;;1.83;;
44426;SDS011;30133;47.866;-4.222;2024-02-23T09:47:27;7.13;;;1.55;;
44426;SDS011;30133;47.866;-4.222;2024-02-23T09:49:54;3.78;;;1.30;;
44426;SDS011;30133;47.866;-4.222;2024-02-23T09:52:21;7.10;;;1.60;;
44426;SDS011;30133;47.866;-4.222;2024-02-23T09:54:47;6.05;;;1.77;;
44426;SDS011;30133;47.866;-4.222;2024-02-23T09:57:14;7.72;;;1.98;;
44426;SDS011;30133;47.866;-4.222;2024-02-23T09:59:41;7.95;;;2.17;;
44426;SDS011;30133;47.866;-4.222;2024-02-23T10:02:08;3.17;;;1.60;;
44426;SDS011;30133;47.866;-4.222;2024-02-23T10:04:40;8.15;;;2.20;;
44426;SDS011;30133;47.866;-4.222;2024-02-23T10:07:08;9.70;;;1.98;;
44426;SDS011;30133;47.866;-4.222;2024-02-23T10:09:35;5.15;;;1.50;;
44426;SDS011;30133;47.866;-4.222;2024-02-23T10:12:02;5.13;;;2.00;;
44426;SDS011;30133;47.866;-4.222;2024-02-23T10:14:28;11.77;;;1.65;;
44426;SDS011;30133;47.866;-4.222;2024-02-23T10:16:54;8.65;;;2.15;;
44426;SDS011;30133;47.866;-4.222;2024-02-23T10:19:20;5.13;;;2.00;;
44426;SDS011;30133;47.866;-4.222;2024-02-23T10:21:46;7.85;;;2.05;;
44426;SDS011;30133;47.866;-4.222;2024-02-23T10:24:15;6.18;;;2.05;;
44426;SDS011;30133;47.866;-4.222;2024-02-23T10:26:42;5.82;;;1.88;;
44426;SDS011;30133;47.866;-4.222;2024-02-23T10:29:08;7.65;;;1.48;;
44426;SDS011;30133;47.866;-4.222;2024-02-23T10:31:36;8.38;;;1.60;;
44426;SDS011;30133;47.866;-4.222;2024-02-23T10:34:06;5.13;;;1.67;;
44426;SDS011;30133;47.866;-4.222;2024-02-23T10:36:43;8.18;;;2.00;;
44426;SDS011;30133;47.866;-4.222;2024-02-23T10:39:10;17.17;;;1.90;;
44426;SDS011;30133;47.866;-4.222;2024-02-23T10:41:46;10.65;;;2.08;;
44426;SDS011;30133;47.866;-4.222;2024-02-23T10:44:18;8.60;;;1.73;;
44426;SDS011;30133;47.866;-4.222;2024-02-23T10:46:44;10.35;;;1.73;;
44426;SDS011;30133;47.866;-4.222;2024-02-23T10:49:11;8.00;;;1.65;;
44426;SDS011;30133;47.866;-4.222;2024-02-23T10:51:40;12.48;;;1.70;;
44426;SDS011;30133;47.866;-4.222;2024-02-23T10:54:07;13.18;;;2.40;;
44426;SDS011;30133;47.866;-4.222;2024-02-23T10:56:33;12.50;;;1.65;;
44426;SDS011;30133;47.866;-4.222;2024-02-23T10:58:59;22.75;;;2.28;;
44426;SDS011;30133;47.866;-4.222;2024-02-23T11:01:25;9.35;;;1.73;;
44426;SDS011;30133;47.866;-4.222;2024-02-23T11:03:51;11.13;;;2.03;;
44426;SDS011;30133;47.866;-4.222;2024-02-23T11:06:18;14.80;;;1.98;;
44426;SDS011;30133;47.866;-4.222;2024-02-23T11:08:46;7.68;;;1.77;;
44426;SDS011;30133;47.866;-4.222;2024-02-23T11:11:16;9.00;;;1.73;;
44426;SDS011;30133;47.866;-4.222;2024-02-23T11:13:44;12.13;;;1.85;;
44426;SDS011;30133;47.866;-4.222;2024-02-23T11:16:12;11.40;;;1.65;;
44426;SDS011;30133;47.866;-4.222;2024-02-23T11:18:47;13.23;;;2.08;;
44426;SDS011;30133;47.866;-4.222;2024-02-23T11:21:13;12.68;;;2.22;;
44426;SDS011;30133;47.866;-4.222;2024-02-23T11:23:42;13.85;;;1.90;;
44426;SDS011;30133;47.866;-4.222;2024-02-23T11:26:18;14.05;;;2.65;;
44426;SDS011;30133;47.866;-4.222;2024-02-23T11:28:48;9.05;;;1.98;;
44426;SDS011;30133;47.866;-4.222;2024-02-23T11:31:15;8.95;;;2.08;;
44426;SDS011;30133;47.866;-4.222;2024-02-23T11:33:47;21.08;;;3.05;;
44426;SDS011;30133;47.866;-4.222;2024-02-23T11:36:21;10.23;;;2.30;;
44426;SDS011;30133;47.866;-4.222;2024-02-23T11:38:54;11.07;;;1.60;;
44426;SDS011;30133;47.866;-4.222;2024-02-23T11:41:22;8.73;;;1.42;;
44426;SDS011;30133;47.866;-4.222;2024-02-23T11:43:56;12.50;;;1.73;;
44426;SDS011;30133;47.866;-4.222;2024-02-23T11:46:25;10.55;;;2.08;;
44426;SDS011;30133;47.866;-4.222;2024-02-23T11:48:51;11.77;;;2.00;;
44426;SDS011;30133;47.866;-4.222;2024-02-23T11:51:20;12.80;;;1.90;;
44426;SDS011;30133;47.866;-4.222;2024-02-23T11:53:47;9.23;;;1.67;;
44426;SDS011;30133;47.866;-4.222;2024-02-23T11:56:14;9.45;;;2.25;;
44426;SDS011;30133;47.866;-4.222;2024-02-23T11:58:40;8.65;;;1.75;;
44426;SDS011;30133;47.866;-4.222;2024-02-23T12:01:07;4.57;;;1.27;;
44426;SDS011;30133;47.866;-4.222;2024-02-23T12:03:33;5.50;;;1.58;;
44426;SDS011;30133;47.866;-4.222;2024-02-23T12:06:02;7.65;;;1.50;;
44426;SDS011;30133;47.866;-4.222;2024-02-23T12:08:29;5.38;;;1.50;;
44426;SDS011;30133;47.866;-4.222;2024-02-23T12:10:57;5.82;;;1.52;;
44426;SDS011;30133;47.866;-4.222;2024-02-23T12:13:27;6.00;;;1.83;;
44426;SDS011;30133;47.866;-4.222;2024-02-23T12:15:53;9.77;;;2.20;;
44426;SDS011;30133;47.866;-4.222;2024-02-23T16:24:18;20.85;;;2.30;;
44426;SDS011;30133;47.866;-4.222;2024-02-23T16:26:50;27.27;;;3.03;;
44426;SDS011;30133;47.866;-4.222;2024-02-23T16:29:16;13.95;;;2.55;;
44426;SDS011;30133;47.866;-4.222;2024-02-23T16:31:42;23.38;;;1.80;;
44426;SDS011;30133;47.866;-4.222;2024-02-23T16:34:08;22.35;;;2.00;;
44426;SDS011;30133;47.866;-4.222;2024-02-23T16:36:34;23.20;;;2.58;;
44426;SDS011;30133;47.866;-4.222;2024-02-23T16:39:00;21.60;;;2.78;;
44426;SDS011;30133;47.866;-4.222;2024-02-23T16:41:27;13.77;;;2.35;;
44426;SDS011;30133;47.866;-4.222;2024-02-23T16:43:52;13.90;;;2.65;;
44426;SDS011;30133;47.866;-4.222;2024-02-23T16:46:20;22.40;;;2.53;;
44426;SDS011;30133;47.866;-4.222;2024-02-23T16:48:45;23.55;;;3.20;;
44426;SDS011;30133;47.866;-4.222;2024-02-23T16:51:11;25.58;;;2.85;;
44426;SDS011;30133;47.866;-4.222;2024-02-23T16:53:37;18.77;;;2.17;;
44426;SDS011;30133;47.866;-4.222;2024-02-23T16:56:03;29.92;;;3.17;;
44426;SDS011;30133;47.866;-4.222;2024-02-23T16:58:29;25.20;;;2.47;;
44426;SDS011;30133;47.866;-4.222;2024-02-23T17:01:00;23.67;;;2.92;;
44426;SDS011;30133;47.866;-4.222;2024-02-23T17:03:31;14.45;;;2.10;;
44426;SDS011;30133;47.866;-4.222;2024-02-23T17:05:57;21.08;;;2.58;;
44426;SDS011;30133;47.866;-4.222;2024-02-23T17:08:26;16.88;;;2.47;;
44426;SDS011;30133;47.866;-4.222;2024-02-23T17:10:52;15.43;;;2.80;;
44426;SDS011;30133;47.866;-4.222;2024-02-23T17:13:18;18.20;;;2.60;;
44426;SDS011;30133;47.866;-4.222;2024-02-23T17:15:44;22.98;;;2.78;;
44426;SDS011;30133;47.866;-4.222;2024-02-23T17:18:10;16.10;;;2.47;;
44426;SDS011;30133;47.866;-4.222;2024-02-23T17:20:36;18.05;;;2.65;;
44426;SDS011;30133;47.866;-4.222;2024-02-23T17:23:02;17.08;;;3.00;;
44426;SDS011;30133;47.866;-4.222;2024-02-23T17:25:28;23.90;;;3.35;;
44426;SDS011;30133;47.866;-4.222;2024-02-23T17:27:55;27.75;;;3.85;;
44426;SDS011;30133;47.866;-4.222;2024-02-23T17:30:21;30.50;;;4.32;;
44426;SDS011;30133;47.866;-4.222;2024-02-23T17:32:47;27.40;;;4.45;;
44426;SDS011;30133;47.866;-4.222;2024-02-23T17:35:14;14.13;;;3.92;;
44426;SDS011;30133;47.866;-4.222;2024-02-23T17:37:40;19.85;;;3.83;;
44426;SDS011;30133;47.866;-4.222;2024-02-23T17:40:06;31.70;;;5.82;;
44426;SDS011;30133;47.866;-4.222;2024-02-23T17:42:32;23.02;;;4.38;;
44426;SDS011;30133;47.866;-4.222;2024-02-23T17:44:58;12.82;;;3.58;;
44426;SDS011;30133;47.866;-4.222;2024-02-23T17:47:24;13.32;;;3.38;;
44426;SDS011;30133;47.866;-4.222;2024-02-23T17:49:50;21.98;;;4.97;;
44426;SDS011;30133;47.866;-4.222;2024-02-23T17:52:16;22.52;;;4.38;;
44426;SDS011;30133;47.866;-4.222;2024-02-23T17:54:42;15.00;;;4.18;;
44426;SDS011;30133;47.866;-4.222;2024-02-23T17:57:08;16.60;;;3.70;;
44426;SDS011;30133;47.866;-4.222;2024-02-23T17:59:34;20.95;;;4.82;;
44426;SDS011;30133;47.866;-4.222;2024-02-23T18:02:02;18.85;;;4.22;;
44426;SDS011;30133;47.866;-4.222;2024-02-23T18:04:28;25.10;;;4.88;;
44426;SDS011;30133;47.866;-4.222;2024-02-23T18:06:54;18.85;;;4.00;;
44426;SDS011;30133;47.866;-4.222;2024-02-23T18:09:20;30.48;;;4.88;;
44426;SDS011;30133;47.866;-4.222;2024-02-23T18:11:46;27.55;;;4.93;;
44426;SDS011;30133;47.866;-4.222;2024-02-23T18:14:18;34.25;;;4.70;;
44426;SDS011;30133;47.866;-4.222;2024-02-23T18:16:44;24.75;;;4.50;;
44426;SDS011;30133;47.866;-4.222;2024-02-23T18:19:11;20.65;;;4.40;;
44426;SDS011;30133;47.866;-4.222;2024-02-23T18:21:37;22.80;;;4.35;;
44426;SDS011;30133;47.866;-4.222;2024-02-23T18:24:03;16.92;;;3.72;;
44426;SDS011;30133;47.866;-4.222;2024-02-23T18:26:31;25.65;;;3.88;;
44426;SDS011;30133;47.866;-4.222;2024-02-23T18:28:57;25.25;;;4.68;;
44426;SDS011;30133;47.866;-4.222;2024-02-23T18:31:23;29.02;;;4.18;;
44426;SDS011;30133;47.866;-4.222;2024-02-23T18:33:49;24.90;;;4.22;;
44426;SDS011;30133;47.866;-4.222;2024-02-23T18:36:15;17.02;;;3.13;;
44426;SDS011;30133;47.866;-4.222;2024-02-23T18:38:42;16.45;;;3.75;;
44426;SDS011;30133;47.866;-4.222;2024-02-23T18:41:12;18.67;;;3.30;;
44426;SDS011;30133;47.866;-4.222;2024-02-23T18:43:38;15.90;;;3.65;;